createdAt,value
2018-09-25T00:01:40.244Z,50.70
2018-09-25T00:04:14.220Z,50.60
2018-09-25T00:06:48.284Z,50.50
2018-09-25T00:09:22.250Z,50.40
2018-09-25T00:11:56.883Z,50.50
2018-09-25T00:14:31.513Z,50.20
2018-09-25T00:17:05.402Z,50.00
2018-09-25T00:19:40.129Z,50.00
2018-09-25T00:22:14.900Z,49.80
2018-09-25T00:24:48.928Z,49.80
2018-09-25T00:27:22.970Z,50.40
2018-09-25T00:29:57.613Z,50.00
2018-09-25T00:32:32.217Z,50.10
2018-09-25T00:35:06.223Z,50.00
2018-09-25T00:37:40.167Z,50.20
2018-09-25T00:40:14.072Z,50.40
2018-09-25T00:42:48.686Z,50.60
2018-09-25T00:45:22.697Z,50.50
2018-09-25T00:47:56.857Z,50.80
2018-09-25T00:50:30.846Z,50.50
2018-09-25T00:53:04.846Z,50.60
2018-09-25T00:55:39.153Z,51.30
2018-09-25T00:58:12.999Z,52.00
2018-09-25T01:00:47.381Z,52.00
2018-09-25T01:03:21.379Z,52.00
2018-09-25T01:05:55.382Z,51.70
2018-09-25T01:08:29.951Z,51.70
2018-09-25T01:11:03.914Z,51.70
2018-09-25T01:13:38.634Z,51.10
2018-09-25T01:16:13.389Z,51.10
2018-09-25T01:18:47.491Z,51.10
2018-09-25T01:21:21.714Z,50.70
2018-09-25T01:23:55.751Z,50.30
2018-09-25T01:26:29.697Z,50.20
2018-09-25T01:29:04.365Z,50.40
2018-09-25T01:31:38.315Z,50.40
2018-09-25T01:34:12.245Z,50.70
2018-09-25T01:36:46.830Z,50.80
2018-09-25T01:39:20.876Z,50.80
2018-09-25T01:41:55.508Z,50.50
2018-09-25T01:44:29.539Z,50.50
2018-09-25T01:47:03.514Z,50.40
2018-09-25T01:49:37.492Z,50.30
2018-09-25T01:52:11.453Z,50.40
2018-09-25T01:54:46.243Z,50.70
2018-09-25T01:57:20.266Z,50.60
2018-09-25T01:59:54.354Z,50.70
2018-09-25T02:02:28.349Z,50.80
2018-09-25T02:05:02.414Z,50.40
2018-09-25T02:07:37.240Z,50.30
2018-09-25T02:10:12.010Z,50.40
2018-09-25T02:12:45.862Z,50.40
2018-09-25T02:15:20.690Z,51.40
2018-09-25T02:17:55.247Z,50.40
2018-09-25T02:20:29.176Z,50.40
2018-09-25T02:23:03.192Z,50.80
2018-09-25T02:25:37.585Z,50.80
2018-09-25T02:28:11.601Z,50.80
2018-09-25T02:30:45.682Z,50.70
2018-09-25T02:33:20.326Z,51.10
2018-09-25T02:35:54.649Z,51.10
2018-09-25T02:38:28.545Z,51.20
2018-09-25T02:41:03.298Z,51.60
2018-09-25T02:43:37.306Z,51.60
2018-09-25T02:46:11.386Z,51.70
2018-09-25T02:48:45.365Z,51.60
2018-09-25T02:51:19.394Z,51.80
2018-09-25T02:53:54.029Z,51.50
2018-09-25T02:56:28.026Z,51.40
2018-09-25T02:59:02.839Z,51.50
2018-09-25T03:01:36.870Z,51.40
2018-09-25T03:04:11.479Z,51.10
2018-09-25T03:06:45.735Z,51.10
2018-09-25T03:09:19.675Z,51.10
2018-09-25T03:11:53.601Z,50.70
2018-09-25T03:14:27.491Z,51.10
2018-09-25T03:17:01.524Z,51.10
2018-09-25T03:19:35.486Z,51.10
2018-09-25T03:22:09.494Z,51.00
2018-09-25T03:24:43.456Z,50.80
2018-09-25T03:27:17.434Z,52.00
2018-09-25T03:29:51.404Z,52.60
2018-09-25T03:32:25.454Z,53.20
2018-09-25T03:35:00.318Z,53.40
2018-09-25T03:37:34.470Z,53.10
2018-09-25T03:40:08.486Z,53.50
2018-09-25T03:42:42.466Z,53.50
2018-09-25T03:45:16.532Z,53.70
2018-09-25T03:47:50.450Z,53.20
2018-09-25T03:50:24.439Z,53.40
2018-09-25T03:52:58.389Z,53.20
2018-09-25T03:55:32.480Z,53.20
2018-09-25T03:58:06.504Z,52.80
2018-09-25T04:00:40.355Z,52.70
2018-09-25T04:03:14.337Z,52.90
2018-09-25T04:05:48.906Z,52.30
2018-09-25T04:08:22.882Z,52.30
2018-09-25T04:10:57.206Z,52.60
2018-09-25T04:13:31.183Z,52.50
2018-09-25T04:16:06.015Z,52.50
2018-09-25T04:18:40.642Z,52.30
2018-09-25T04:21:15.342Z,52.60
2018-09-25T04:23:49.172Z,52.60
2018-09-25T04:26:23.789Z,52.90
2018-09-25T04:28:58.751Z,52.70
2018-09-25T04:31:32.674Z,52.70
2018-09-25T04:34:06.626Z,53.10
2018-09-25T04:36:40.787Z,52.90
2018-09-25T04:39:14.645Z,53.00
2018-09-25T04:41:48.631Z,51.80
2018-09-25T04:44:22.670Z,52.10
2018-09-25T04:46:56.710Z,52.50
2018-09-25T04:49:30.714Z,53.10
2018-09-25T04:52:05.594Z,52.80
2018-09-25T04:54:39.606Z,53.90
2018-09-25T04:57:14.358Z,52.60
2018-09-25T04:59:48.205Z,52.60
2018-09-25T05:02:22.243Z,52.50
2018-09-25T05:04:56.238Z,52.90
2018-09-25T05:07:30.127Z,53.20
2018-09-25T05:10:04.097Z,53.70
2018-09-25T05:12:38.085Z,54.20
2018-09-25T05:15:12.133Z,54.40
2018-09-25T05:17:46.962Z,53.90
2018-09-25T05:20:21.663Z,54.10
2018-09-25T05:22:55.699Z,54.00
2018-09-25T05:25:30.328Z,53.90
2018-09-25T05:28:04.217Z,53.90
2018-09-25T05:30:38.249Z,53.40
2018-09-25T05:33:12.146Z,53.70
2018-09-25T05:35:46.879Z,53.40
2018-09-25T05:38:20.906Z,53.30
2018-09-25T05:40:54.977Z,53.60
2018-09-25T05:43:28.750Z,53.60
2018-09-25T05:46:02.820Z,53.60
2018-09-25T05:48:37.699Z,54.10
2018-09-25T05:51:11.594Z,54.10
2018-09-25T05:53:46.164Z,55.30
2018-09-25T05:56:20.918Z,55.60
2018-09-25T05:58:54.938Z,55.60
2018-09-25T06:01:28.876Z,56.20
2018-09-25T06:04:02.874Z,56.80
2018-09-25T06:06:36.927Z,56.30
2018-09-25T06:09:11.626Z,56.10
2018-09-25T06:11:45.670Z,56.10
2018-09-25T06:14:20.307Z,56.80
2018-09-25T06:16:54.282Z,56.70
2018-09-25T06:19:28.189Z,56.40
2018-09-25T06:22:02.256Z,57.30
2018-09-25T06:24:36.242Z,57.30
2018-09-25T06:27:10.330Z,57.30
2018-09-25T06:29:44.966Z,58.80
2018-09-25T06:32:19.647Z,58.30
2018-09-25T06:34:53.521Z,58.10
2018-09-25T06:37:27.453Z,57.50
2018-09-25T06:40:01.422Z,58.30
2018-09-25T06:42:35.454Z,57.40
2018-09-25T06:45:09.437Z,57.60
2018-09-25T06:47:44.242Z,57.60
2018-09-25T06:50:18.890Z,57.10
2018-09-25T06:52:52.914Z,57.50
2018-09-25T06:55:27.007Z,57.80
2018-09-25T06:58:01.738Z,56.70
2018-09-25T07:00:36.961Z,55.90
2018-09-25T07:03:11.731Z,55.20
2018-09-25T07:05:45.939Z,55.20
2018-09-25T07:08:19.911Z,55.00
2018-09-25T07:10:54.660Z,54.00
2018-09-25T07:13:28.662Z,53.90
2018-09-25T07:16:02.702Z,52.60
2018-09-25T07:18:36.671Z,51.50
2018-09-25T07:21:11.508Z,50.80
2018-09-25T07:23:46.156Z,51.30
2018-09-25T07:26:20.122Z,51.10
2018-09-25T07:28:54.169Z,50.20
2018-09-25T07:31:28.195Z,50.00
2018-09-25T07:34:02.191Z,49.90
2018-09-25T07:36:36.173Z,49.20
2018-09-25T07:39:10.985Z,48.10
2018-09-25T07:41:46.456Z,47.80
2018-09-25T07:44:20.923Z,47.80
2018-09-25T07:46:55.608Z,46.70
2018-09-25T07:49:30.238Z,47.20
2018-09-25T07:52:04.175Z,47.10
2018-09-25T07:54:38.197Z,46.40
2018-09-25T07:57:12.830Z,45.80
2018-09-25T07:59:47.009Z,45.80
2018-09-25T08:02:21.065Z,46.00
2018-09-25T08:04:54.948Z,44.70
2018-09-25T08:07:28.948Z,44.70
2018-09-25T08:10:02.900Z,44.40
2018-09-25T08:12:37.749Z,44.40
2018-09-25T08:15:12.345Z,44.30
2018-09-25T08:17:46.362Z,43.90
2018-09-25T08:20:20.319Z,43.80
2018-09-25T08:22:54.404Z,43.40
2018-09-25T08:25:28.303Z,42.70
2018-09-25T08:28:02.322Z,42.90
2018-09-25T08:30:36.856Z,41.40
2018-09-25T08:33:11.452Z,42.40
2018-09-25T08:35:46.135Z,43.10
2018-09-25T08:38:20.078Z,43.10
2018-09-25T08:40:54.834Z,40.30
2018-09-25T08:43:28.854Z,40.20
2018-09-25T08:46:02.698Z,40.10
2018-09-25T08:48:36.690Z,41.10
2018-09-25T08:51:10.628Z,39.50
2018-09-25T08:53:44.676Z,38.40
2018-09-25T08:56:18.652Z,37.20
2018-09-25T08:58:52.662Z,38.50
2018-09-25T09:01:27.316Z,37.50
2018-09-25T09:04:01.297Z,37.40
2018-09-25T09:06:35.161Z,37.90
2018-09-25T09:09:09.131Z,37.00
2018-09-25T09:11:43.963Z,38.40
2018-09-25T09:14:17.852Z,38.30
2018-09-25T09:16:52.555Z,36.20
2018-09-25T09:19:26.588Z,36.10
2018-09-25T09:22:01.898Z,35.70
2018-09-25T09:24:35.871Z,35.60
2018-09-25T09:27:09.920Z,34.70
2018-09-25T09:29:44.042Z,33.80
2018-09-25T09:32:17.962Z,33.90
2018-09-25T09:34:52.683Z,31.10
2018-09-25T09:37:26.635Z,31.20
2018-09-25T09:40:00.768Z,31.00
2018-09-25T09:42:34.647Z,29.70
2018-09-25T09:45:08.613Z,31.10
2018-09-25T09:47:42.631Z,28.90
2018-09-25T09:50:16.651Z,29.10
2018-09-25T09:52:53.976Z,32.20
2018-09-25T09:55:28.061Z,30.70
2018-09-25T09:58:02.031Z,31.10
2018-09-25T10:00:36.102Z,32.60
2018-09-25T10:03:10.093Z,31.10
2018-09-25T10:05:46.657Z,30.70
2018-09-25T10:08:20.677Z,30.60
2018-09-25T10:10:54.653Z,29.60
2018-09-25T10:13:28.688Z,30.70
2018-09-25T10:16:02.691Z,29.40
2018-09-25T10:18:37.671Z,28.40
2018-09-25T10:21:11.618Z,28.40
2018-09-25T10:23:45.542Z,27.10
2018-09-25T10:26:19.540Z,27.20
2018-09-25T10:28:54.320Z,28.50
2018-09-25T10:31:28.338Z,28.50
2018-09-25T10:34:02.387Z,28.40
2018-09-25T10:36:36.357Z,28.60
2018-09-25T10:39:10.339Z,28.60
2018-09-25T10:41:44.442Z,30.00
2018-09-25T10:44:18.437Z,29.70
2018-09-25T10:46:53.279Z,30.00
2018-09-25T10:49:27.362Z,30.00
2018-09-25T10:52:01.373Z,31.30
2018-09-25T10:54:35.353Z,29.70
2018-09-25T10:57:09.382Z,30.10
2018-09-25T10:59:43.433Z,29.70
2018-09-25T11:02:17.428Z,29.40
2018-09-25T11:04:52.139Z,30.50
2018-09-25T11:07:26.963Z,30.20
2018-09-25T11:10:00.795Z,29.80
2018-09-25T11:12:35.602Z,29.90
2018-09-25T11:15:10.359Z,29.40
2018-09-25T11:17:44.731Z,29.40
2018-09-25T11:20:18.607Z,30.00
2018-09-25T11:22:52.663Z,28.90
2018-09-25T11:25:27.543Z,28.20
2018-09-25T11:28:02.118Z,29.80
2018-09-25T11:30:36.882Z,28.60
2018-09-25T11:33:10.893Z,28.40
2018-09-25T11:35:44.927Z,28.10
2018-09-25T11:38:18.997Z,28.70
2018-09-25T11:40:53.031Z,25.80
2018-09-25T11:43:26.889Z,26.50
2018-09-25T11:46:01.701Z,27.30
2018-09-25T11:48:35.589Z,26.90
2018-09-25T11:51:09.591Z,28.00
2018-09-25T11:53:43.440Z,26.80
2018-09-25T11:56:17.937Z,27.50
2018-09-25T11:58:51.678Z,27.90
2018-09-25T12:01:26.580Z,27.50
2018-09-25T12:04:00.527Z,27.50
2018-09-25T12:06:34.331Z,26.10
2018-09-25T12:09:08.274Z,27.10
2018-09-25T12:11:42.236Z,25.90
2018-09-25T12:14:17.094Z,25.50
2018-09-25T12:16:51.026Z,25.40
2018-09-25T12:19:24.986Z,26.60
2018-09-25T12:21:59.928Z,26.10
2018-09-25T12:24:33.765Z,25.70
2018-09-25T12:27:07.711Z,24.80
2018-09-25T12:29:41.621Z,26.20
2018-09-25T12:32:16.602Z,25.60
2018-09-25T12:34:50.554Z,25.50
2018-09-25T12:37:24.487Z,26.90
2018-09-25T12:39:58.430Z,24.50
2018-09-25T12:42:32.374Z,24.30
2018-09-25T12:45:06.299Z,24.60
2018-09-25T12:47:40.246Z,24.20
2018-09-25T12:50:14.173Z,25.00
2018-09-25T12:52:48.017Z,25.60
2018-09-25T12:55:22.745Z,26.10
2018-09-25T12:57:57.318Z,25.80
2018-09-25T13:00:31.252Z,25.80
2018-09-25T13:03:05.211Z,26.10
2018-09-25T13:05:39.145Z,24.90
2018-09-25T13:08:13.065Z,24.90
2018-09-25T13:10:47.003Z,24.90
2018-09-25T13:13:20.946Z,24.10
2018-09-25T13:15:55.002Z,24.80
2018-09-25T13:18:29.018Z,25.10
2018-09-25T13:21:03.065Z,25.20
2018-09-25T13:23:37.076Z,25.10
2018-09-25T13:26:11.068Z,25.40
2018-09-25T13:28:45.806Z,25.90
2018-09-25T13:31:19.805Z,25.20
2018-09-25T13:33:54.625Z,25.90
2018-09-25T13:36:28.668Z,26.00
2018-09-25T13:39:02.593Z,25.30
2018-09-25T13:41:36.692Z,25.30
2018-09-25T13:44:10.731Z,25.10
2018-09-25T13:46:45.979Z,23.10
2018-09-25T13:49:19.835Z,23.40
2018-09-25T13:51:53.882Z,23.10
2018-09-25T13:54:27.754Z,24.30
2018-09-25T13:57:01.743Z,23.30
2018-09-25T13:59:36.366Z,26.50
2018-09-25T14:02:10.291Z,26.50
2018-09-25T14:04:44.356Z,24.50
2018-09-25T14:07:18.309Z,25.70
2018-09-25T14:09:52.344Z,23.90
2018-09-25T14:12:26.389Z,26.30
2018-09-25T14:15:00.996Z,23.30
2018-09-25T14:17:34.952Z,23.30
2018-09-25T14:20:09.678Z,24.80
2018-09-25T14:22:44.301Z,24.50
2018-09-25T14:25:19.056Z,25.00
2018-09-25T14:27:53.207Z,25.00
2018-09-25T14:30:27.523Z,24.20
2018-09-25T14:33:01.466Z,23.80
2018-09-25T14:35:36.286Z,24.80
2018-09-25T14:38:11.240Z,24.10
2018-09-25T14:40:45.167Z,24.10
2018-09-25T14:43:19.273Z,24.90
2018-09-25T14:45:53.254Z,24.90
2018-09-25T14:48:27.894Z,24.60
2018-09-25T14:51:02.426Z,25.30
2018-09-25T14:53:36.661Z,25.30
2018-09-25T14:56:10.617Z,23.90
2018-09-25T14:58:44.560Z,25.10
2018-09-25T15:01:18.526Z,24.60
2018-09-25T15:03:52.520Z,22.70
2018-09-25T15:06:26.514Z,23.60
2018-09-25T15:09:01.193Z,24.70
2018-09-25T15:11:36.003Z,24.70
2018-09-25T15:14:10.913Z,27.70
2018-09-25T15:16:44.936Z,27.60
2018-09-25T15:19:18.786Z,24.70
2018-09-25T15:21:52.903Z,24.20
2018-09-25T15:24:27.510Z,24.70
2018-09-25T15:27:01.738Z,24.60
2018-09-25T15:29:35.539Z,25.20
2018-09-25T15:32:09.478Z,25.40
2018-09-25T15:34:43.396Z,24.50
2018-09-25T15:37:17.339Z,24.50
2018-09-25T15:39:52.034Z,24.80
2018-09-25T15:42:25.998Z,24.80
2018-09-25T15:44:59.920Z,25.20
2018-09-25T15:47:33.973Z,24.80
2018-09-25T15:50:07.930Z,24.40
2018-09-25T15:52:44.817Z,26.30
2018-09-25T15:55:18.716Z,26.30
2018-09-25T15:57:52.541Z,25.30
2018-09-25T16:00:26.500Z,25.70
2018-09-25T16:03:00.351Z,25.80
2018-09-25T16:05:34.153Z,26.40
2018-09-25T16:08:08.065Z,26.40
2018-09-25T16:10:41.895Z,25.30
2018-09-25T16:13:15.803Z,27.00
2018-09-25T16:15:49.558Z,26.30
2018-09-25T16:18:23.485Z,26.10
2018-09-25T16:20:57.307Z,26.30
2018-09-25T16:23:31.110Z,27.10
2018-09-25T16:26:05.066Z,27.60
2018-09-25T16:28:38.975Z,26.70
2018-09-25T16:31:12.903Z,26.80
2018-09-25T16:33:46.856Z,27.90
2018-09-25T16:36:20.866Z,28.40
2018-09-25T16:38:54.890Z,27.80
2018-09-25T16:41:29.547Z,27.80
2018-09-25T16:44:03.531Z,27.40
2018-09-25T16:46:38.171Z,27.90
2018-09-25T16:49:11.977Z,27.90
2018-09-25T16:51:45.974Z,28.30
2018-09-25T16:54:20.743Z,27.30
2018-09-25T16:56:54.699Z,27.20
2018-09-25T16:59:29.402Z,29.20
2018-09-25T17:02:03.998Z,28.60
2018-09-25T17:04:37.958Z,28.50
2018-09-25T17:07:12.689Z,30.00
2018-09-25T17:09:47.374Z,29.90
2018-09-25T17:12:22.157Z,29.40
2018-09-25T17:14:56.086Z,29.80
2018-09-25T17:17:30.128Z,29.90
2018-09-25T17:20:04.094Z,29.60
2018-09-25T17:22:38.121Z,30.60
2018-09-25T17:25:12.040Z,31.80
2018-09-25T17:27:46.844Z,33.20
2018-09-25T17:30:20.830Z,33.20
2018-09-25T17:32:55.373Z,34.20
2018-09-25T17:35:29.325Z,34.10
2018-09-25T17:38:03.435Z,34.10
2018-09-25T17:40:37.480Z,32.90
2018-09-25T17:43:11.514Z,32.90
2018-09-25T17:45:45.373Z,32.90
2018-09-25T17:48:19.435Z,32.80
2018-09-25T17:50:53.442Z,32.80
2018-09-25T17:53:28.092Z,32.70
2018-09-25T17:56:02.081Z,32.70
2018-09-25T17:58:36.064Z,33.30
2018-09-25T18:01:10.786Z,33.80
2018-09-25T18:03:45.507Z,35.10
2018-09-25T18:06:20.155Z,35.10
2018-09-25T18:08:54.163Z,35.00
2018-09-25T18:11:28.172Z,34.20
2018-09-25T18:14:02.167Z,35.90
2018-09-25T18:16:36.923Z,35.30
2018-09-25T18:19:10.877Z,35.10
2018-09-25T18:21:44.934Z,35.20
2018-09-25T18:24:18.885Z,34.80
2018-09-25T18:26:52.834Z,35.50
2018-09-25T18:29:27.564Z,35.60
2018-09-25T18:32:01.614Z,35.50
2018-09-25T18:34:35.824Z,34.70
2018-09-25T18:37:09.867Z,35.80
2018-09-25T18:39:43.838Z,35.80
2018-09-25T18:42:17.792Z,34.70
2018-09-25T18:44:51.844Z,35.50
2018-09-25T18:47:25.830Z,36.30
2018-09-25T18:50:00.447Z,35.30
2018-09-25T18:52:35.241Z,34.30
2018-09-25T18:55:09.142Z,34.20
2018-09-25T18:57:43.144Z,34.00
2018-09-25T19:00:17.369Z,34.80
2018-09-25T19:02:51.367Z,34.10
2018-09-25T19:05:25.487Z,34.50
2018-09-25T19:07:59.396Z,34.30
2018-09-25T19:10:33.394Z,34.30
2018-09-25T19:13:07.313Z,35.20
2018-09-25T19:15:41.878Z,34.60
2018-09-25T19:18:16.608Z,35.20
2018-09-25T19:20:51.424Z,35.50
2018-09-25T19:23:26.137Z,36.20
2018-09-25T19:26:00.125Z,36.20
2018-09-25T19:28:34.017Z,35.80
2018-09-25T19:31:07.984Z,37.00
2018-09-25T19:33:42.796Z,35.60
2018-09-25T19:36:16.680Z,35.50
2018-09-25T19:38:50.719Z,36.00
2018-09-25T19:41:24.655Z,37.60
2018-09-25T19:43:59.294Z,37.40
2018-09-25T19:46:33.323Z,37.20
2018-09-25T19:49:07.348Z,36.80
2018-09-25T19:51:41.311Z,36.30
2018-09-25T19:54:15.217Z,36.30
2018-09-25T19:56:49.214Z,35.60
2018-09-25T19:59:23.111Z,34.70
2018-09-25T20:01:57.743Z,35.20
2018-09-25T20:04:32.518Z,36.20
2018-09-25T20:07:06.543Z,36.20
2018-09-25T20:09:40.466Z,36.70
2018-09-25T20:12:14.502Z,36.20
2018-09-25T20:14:48.495Z,35.90
2018-09-25T20:17:23.272Z,37.20
2018-09-25T20:19:57.270Z,37.10
2018-09-25T20:22:31.257Z,36.20
2018-09-25T20:25:05.290Z,36.20
2018-09-25T20:27:39.377Z,36.30
2018-09-25T20:30:14.130Z,36.30
2018-09-25T20:32:48.090Z,36.30
2018-09-25T20:35:22.051Z,38.40
2018-09-25T20:37:55.944Z,37.70
2018-09-25T20:40:29.977Z,36.90
2018-09-25T20:43:04.096Z,37.30
2018-09-25T20:45:38.150Z,37.60
2018-09-25T20:48:12.934Z,38.70
2018-09-25T20:50:46.879Z,38.60
2018-09-25T20:53:21.634Z,39.30
2018-09-25T20:55:55.601Z,39.30
2018-09-25T20:58:29.568Z,38.80
2018-09-25T21:01:03.441Z,39.10
2018-09-25T21:03:38.159Z,39.70
2018-09-25T21:06:12.902Z,39.50
2018-09-25T21:08:46.835Z,39.50
2018-09-25T21:11:20.830Z,39.10
2018-09-25T21:13:54.799Z,39.10
2018-09-25T21:16:28.982Z,39.50
2018-09-25T21:19:03.025Z,40.20
2018-09-25T21:21:36.893Z,40.10
2018-09-25T21:24:10.853Z,41.00
2018-09-25T21:26:45.501Z,41.50
2018-09-25T21:29:19.323Z,41.40
2018-09-25T21:31:53.361Z,41.00
2018-09-25T21:34:27.318Z,41.20
2018-09-25T21:37:01.334Z,41.00
2018-09-25T21:39:35.420Z,41.00
2018-09-25T21:42:09.277Z,40.80
2018-09-25T21:44:43.933Z,42.10
2018-09-25T21:47:17.930Z,42.10
2018-09-25T21:49:51.931Z,42.10
2018-09-25T21:52:26.512Z,42.30
2018-09-25T21:55:00.862Z,42.10
2018-09-25T21:57:34.997Z,43.40
2018-09-25T22:00:08.964Z,42.80
2018-09-25T22:02:42.815Z,42.40
2018-09-25T22:05:16.772Z,42.60
2018-09-25T22:07:50.798Z,42.50
2018-09-25T22:10:24.766Z,42.30
2018-09-25T22:12:59.329Z,43.20
2018-09-25T22:15:33.330Z,43.10
2018-09-25T22:18:07.321Z,42.90
2018-09-25T22:20:41.275Z,42.60
2018-09-25T22:23:15.299Z,42.50
2018-09-25T22:25:49.333Z,43.00
2018-09-25T22:28:24.186Z,42.50
2018-09-25T22:30:58.191Z,42.40
2018-09-25T22:33:32.218Z,42.00
2018-09-25T22:36:06.247Z,42.60
2018-09-25T22:38:40.182Z,42.10
2018-09-25T22:41:14.132Z,42.10
2018-09-25T22:43:48.125Z,41.90
2018-09-25T22:46:22.965Z,42.70
2018-09-25T22:48:57.702Z,42.60
2018-09-25T22:51:31.649Z,42.50
2018-09-25T22:54:05.701Z,42.20
2018-09-25T22:56:40.454Z,41.90
2018-09-25T22:59:14.328Z,41.80
2018-09-25T23:01:48.951Z,42.40
2018-09-25T23:04:23.772Z,41.90
2018-09-25T23:06:57.639Z,41.70
2018-09-25T23:09:31.591Z,42.40
2018-09-25T23:12:06.195Z,42.30
2018-09-25T23:14:40.122Z,42.20
2018-09-25T23:17:14.867Z,42.30
2018-09-25T23:19:48.838Z,42.10
2018-09-25T23:22:22.803Z,42.40
2018-09-25T23:24:56.710Z,42.30
2018-09-25T23:27:30.715Z,41.70
2018-09-25T23:30:04.702Z,41.20
2018-09-25T23:32:39.446Z,41.10
2018-09-25T23:35:13.246Z,41.00
2018-09-25T23:37:47.294Z,41.30
2018-09-25T23:40:15.547Z,41.10
2018-09-25T23:42:43.814Z,41.00
2018-09-25T23:45:12.055Z,41.30
2018-09-25T23:47:41.081Z,42.00
2018-09-25T23:50:09.357Z,42.00
2018-09-25T23:52:38.326Z,41.70
2018-09-25T23:55:07.346Z,42.30
2018-09-25T23:57:35.599Z,42.10
